Time;durP1;ratioP1;P1;durP2;ratioP2;P2;SDS_P1;SDS_P2;PMS_P1;PMS_P2;Temp;Humidity;BMP_temperature;BMP_pressure;BME280_temperature;BME280_humidity;BME280_pressure;Samples;Min_cycle;Max_cycle;Signal;HPM_P1;HPM_P2
2023/10/11 00:01:03;;;;;;;44.75;24.08;;;;;;;18.31;100.00;101376.53;4779334;30;20725;-64
2023/10/11 00:06:11;;;;;;;47.53;23.38;;;;;;;18.11;100.00;101375.88;4779460;30;20055;-64
2023/10/11 00:08:40;;;;;;;44.88;23.98;;;;;;;18.07;100.00;101383.16;4776810;30;20070;-64
2023/10/11 00:11:08;;;;;;;39.88;22.13;;;;;;;18.16;100.00;101383.25;4778897;30;20059;-64
2023/10/11 00:13:37;;;;;;;43.38;21.83;;;;;;;18.05;100.00;101377.09;4778323;30;20055;-64
2023/10/11 00:16:10;;;;;;;41.33;21.75;;;;;;;17.99;100.00;101382.75;4777367;30;20399;-64
2023/10/11 00:18:41;;;;;;;45.85;23.65;;;;;;;17.93;100.00;101375.69;4777975;30;20051;-64
2023/10/11 00:21:12;;;;;;;47.60;24.98;;;;;;;17.89;100.00;101388.50;4778517;30;20074;-64
2023/10/11 00:23:42;;;;;;;44.83;23.05;;;;;;;17.82;100.00;101385.34;4778528;29;20288;-64
2023/10/11 00:26:14;;;;;;;41.55;22.33;;;;;;;17.85;100.00;101382.78;4763067;30;20070;-64
2023/10/11 00:28:53;;;;;;;39.20;21.65;;;;;;;17.82;100.00;101390.88;4777873;30;20063;-64
2023/10/11 00:31:23;;;;;;;43.60;22.38;;;;;;;17.83;100.00;101389.75;4778661;30;20055;-64
2023/10/11 00:33:56;;;;;;;41.03;21.92;;;;;;;17.79;100.00;101383.22;4779523;29;20063;-64
2023/10/11 00:36:29;;;;;;;37.65;20.27;;;;;;;17.73;100.00;101383.31;4779609;30;20074;-64
2023/10/11 00:38:57;;;;;;;37.47;20.13;;;;;;;17.69;100.00;101378.72;4767147;30;20063;-64
2023/10/11 00:41:30;;;;;;;36.83;19.17;;;;;;;17.71;100.00;101384.75;4779014;29;20063;-64
2023/10/11 00:43:59;;;;;;;33.38;17.95;;;;;;;17.67;100.00;101387.31;4778416;30;20059;-64
2023/10/11 00:46:38;;;;;;;32.90;17.77;;;;;;;17.71;100.00;101382.78;4778453;29;20393;-64
2023/10/11 00:49:12;;;;;;;31.45;15.80;;;;;;;17.67;100.00;101390.09;4776162;30;20055;-64
2023/10/11 00:51:44;;;;;;;30.05;15.30;;;;;;;17.64;100.00;101387.91;4777422;30;20051;-64
2023/10/11 00:54:15;;;;;;;28.92;14.27;;;;;;;17.61;100.00;101385.78;4777642;30;20707;-64
2023/10/11 00:56:48;;;;;;;31.40;15.05;;;;;;;17.53;100.00;101376.25;4763017;30;20055;-64
2023/10/11 00:59:21;;;;;;;28.33;14.13;;;;;;;17.62;100.00;101373.59;4761046;30;20055;-64
2023/10/11 01:01:52;;;;;;;33.97;16.10;;;;;;;17.65;100.00;101377.69;4761922;29;20063;-64
2023/10/11 01:04:20;;;;;;;30.30;14.77;;;;;;;17.57;100.00;101370.91;4777665;30;20086;-64
2023/10/11 01:06:48;;;;;;;26.77;13.60;;;;;;;17.56;100.00;101374.81;4777888;30;20074;-64
2023/10/11 01:09:26;;;;;;;28.88;14.85;;;;;;;17.60;100.00;101364.78;4760776;30;20067;-64
2023/10/11 01:11:54;;;;;;;35.03;15.05;;;;;;;17.78;100.00;101376.03;4778631;30;20067;-64
2023/10/11 01:14:23;;;;;;;28.95;13.93;;;;;;;17.75;100.00;101373.88;4761366;30;20055;-64
2023/10/11 01:16:51;;;;;;;27.35;14.52;;;;;;;17.64;100.00;101365.78;4778479;30;20089;-65
2023/10/11 01:19:20;;;;;;;29.92;14.38;;;;;;;17.64;100.00;101371.31;4777103;30;20067;-64
2023/10/11 01:21:51;;;;;;;32.72;15.18;;;;;;;17.66;100.00;101379.31;4761119;30;20059;-64
2023/10/11 01:24:19;;;;;;;28.80;14.88;;;;;;;17.54;100.00;101372.34;4777213;30;20063;-64
2023/10/11 01:26:49;;;;;;;28.38;14.18;;;;;;;17.39;100.00;101367.94;4777834;29;20813;-63
2023/10/11 01:29:18;;;;;;;28.80;14.38;;;;;;;17.46;100.00;101373.09;4776486;30;20722;-63
2023/10/11 01:31:46;;;;;;;29.85;15.48;;;;;;;17.40;100.00;101374.31;4777863;30;20063;-63
2023/10/11 01:34:16;;;;;;;29.65;15.23;;;;;;;17.36;100.00;101373.28;4777178;30;20190;-63
2023/10/11 01:36:46;;;;;;;28.48;16.23;;;;;;;17.32;100.00;101368.34;4777405;29;20051;-63
2023/10/11 01:39:14;;;;;;;26.27;15.38;;;;;;;17.32;100.00;101365.56;4776888;30;20063;-63
2023/10/11 01:41:43;;;;;;;26.17;14.35;;;;;;;17.25;100.00;101375.44;4777543;30;20076;-63
2023/10/11 01:44:12;;;;;;;24.55;13.70;;;;;;;17.16;100.00;101370.59;4761728;30;20066;-63
2023/10/11 01:46:41;;;;;;;28.55;13.55;;;;;;;17.13;100.00;101373.16;4761724;30;20063;-63
2023/10/11 01:49:10;;;;;;;27.08;12.60;;;;;;;17.19;100.00;101369.16;4776264;30;20507;-63
2023/10/11 01:51:48;;;;;;;23.27;12.13;;;;;;;17.10;100.00;101365.47;4776936;30;20062;-63
2023/10/11 01:54:16;;;;;;;21.40;11.65;;;;;;;17.11;100.00;101373.44;4778126;30;20828;-66
2023/10/11 01:56:45;;;;;;;21.98;11.50;;;;;;;17.14;100.00;101372.03;4775678;30;20063;-64
2023/10/11 01:59:13;;;;;;;21.60;11.93;;;;;;;17.12;100.00;101372.34;4775846;29;20059;-63
2023/10/11 02:01:41;;;;;;;21.92;10.80;;;;;;;17.10;100.00;101377.34;4778232;30;20055;-63
2023/10/11 02:04:17;;;;;;;25.33;11.05;;;;;;;17.09;100.00;101372.94;4760160;30;20067;-63
2023/10/11 02:06:54;;;;;;;23.05;9.98;;;;;;;17.03;100.00;101368.63;4775931;30;20070;-64
2023/10/11 02:09:25;;;;;;;17.38;9.77;;;;;;;17.06;100.00;101373.56;4776302;30;20082;-64
2023/10/11 02:11:54;;;;;;;22.40;10.43;;;;;;;17.03;100.00;101368.63;4776820;30;20078;-64
2023/10/11 02:14:25;;;;;;;19.65;10.32;;;;;;;17.13;100.00;101373.16;4778181;29;20078;-63
2023/10/11 02:16:56;;;;;;;22.08;9.05;;;;;;;17.05;100.00;101372.75;4779236;30;20059;-64
2023/10/11 02:19:25;;;;;;;14.70;7.68;;;;;;;17.03;100.00;101369.47;4780520;30;20063;-64
2023/10/11 02:21:54;;;;;;;19.33;8.02;;;;;;;17.21;100.00;101369.69;4780807;30;20056;-63
2023/10/11 02:24:25;;;;;;;16.88;8.43;;;;;;;17.35;100.00;101374.41;4780854;30;20090;-64
2023/10/11 02:26:55;;;;;;;13.18;7.10;;;;;;;17.26;100.00;101369.56;4764399;30;20074;-63
2023/10/11 02:29:27;;;;;;;16.45;7.88;;;;;;;17.17;100.00;101374.19;4779827;30;20092;-63
2023/10/11 02:31:58;;;;;;;14.18;7.90;;;;;;;17.18;100.00;101375.81;4779304;30;20059;-64
2023/10/11 02:34:27;;;;;;;14.00;7.65;;;;;;;17.08;100.00;101371.31;4781381;30;20062;-63
2023/10/11 02:37:01;;;;;;;15.48;7.35;;;;;;;17.04;100.00;101370.28;4780399;30;21169;-63
2023/10/11 02:39:43;;;;;;;13.73;7.72;;;;;;;17.32;100.00;101379.41;4779272;30;20055;-64
2023/10/11 02:42:11;;;;;;;18.83;7.93;;;;;;;17.25;100.00;101372.66;4780511;30;20431;-64
2023/10/11 02:44:39;;;;;;;14.30;7.38;;;;;;;17.16;100.00;101381.66;4780473;30;20063;-64
2023/10/11 02:47:09;;;;;;;14.18;7.60;;;;;;;17.03;100.00;101379.69;4780252;30;20059;-63
2023/10/11 02:49:39;;;;;;;18.00;7.07;;;;;;;16.95;100.00;101374.84;4779410;30;20067;-64
2023/10/11 02:52:06;;;;;;;16.63;7.82;;;;;;;16.91;100.00;101378.22;4780241;30;20044;-64
2023/10/11 02:54:40;;;;;;;15.23;6.43;;;;;;;16.98;100.00;101382.53;4764520;30;20066;-64
2023/10/11 02:57:17;;;;;;;17.83;8.00;;;;;;;17.03;100.00;101379.69;4762696;30;20058;-63
2023/10/11 02:59:50;;;;;;;19.75;7.35;;;;;;;17.09;100.00;101378.47;4779014;30;20063;-64
2023/10/11 03:02:21;;;;;;;21.70;7.70;;;;;;;17.11;100.00;101375.41;4763861;30;21492;-63
2023/10/11 03:04:51;;;;;;;14.13;7.03;;;;;;;17.13;100.00;101379.50;4779083;29;20316;-63
2023/10/11 03:07:23;;;;;;;13.00;6.60;;;;;;;17.07;100.00;101375.22;4779437;29;20070;-64
2023/10/11 03:09:54;;;;;;;14.88;6.80;;;;;;;17.01;100.00;101376.41;4777914;29;20619;-63
2023/10/11 03:12:30;;;;;;;16.25;7.15;;;;;;;16.99;100.00;101362.03;4779108;30;20063;-63
2023/10/11 03:15:09;;;;;;;17.42;7.38;;;;;;;17.13;100.00;101367.63;4779668;30;20056;-63
2023/10/11 03:17:41;;;;;;;18.13;7.07;;;;;;;17.12;100.00;101377.88;4779653;30;20063;-64
2023/10/11 03:20:35;;;;;;;20.05;7.35;;;;;;;17.05;100.00;101371.91;4778523;30;20055;-64
2023/10/11 03:23:10;;;;;;;16.88;8.15;;;;;;;17.11;100.00;101375.41;4779309;30;20150;-63
2023/10/11 03:25:44;;;;;;;15.68;7.60;;;;;;;17.01;100.00;101374.44;4778190;29;20082;-63
2023/10/11 03:28:14;;;;;;;17.27;7.65;;;;;;;17.16;100.00;101367.81;4778132;30;20423;-64
2023/10/11 03:30:43;;;;;;;20.17;7.68;;;;;;;17.24;100.00;101371.00;4779148;30;20059;-63
2023/10/11 03:33:11;;;;;;;17.17;6.85;;;;;;;17.10;100.00;101371.00;4779503;30;20105;-64
2023/10/11 03:35:39;;;;;;;16.73;7.20;;;;;;;16.91;100.00;101369.06;4779616;30;20044;-63
2023/10/11 03:38:17;;;;;;;15.57;7.20;;;;;;;16.74;100.00;101370.50;4778156;30;20060;-64
2023/10/11 03:40:54;;;;;;;16.65;8.65;;;;;;;16.66;100.00;101363.72;4778581;30;20058;-64
2023/10/11 03:43:32;;;;;;;23.40;9.60;;;;;;;16.72;100.00;101363.63;4778958;30;20736;-63
2023/10/11 03:46:03;;;;;;;20.70;9.20;;;;;;;16.79;100.00;101367.66;4779866;30;20047;-64
2023/10/11 03:48:37;;;;;;;19.70;9.40;;;;;;;16.73;100.00;101370.78;4778487;30;20059;-64
2023/10/11 03:51:06;;;;;;;20.08;9.35;;;;;;;16.64;100.00;101368.72;4778766;30;20062;-64
2023/10/11 03:53:39;;;;;;;23.65;8.68;;;;;;;16.58;100.00;101369.09;4779660;30;20047;-64
2023/10/11 03:56:07;;;;;;;17.13;7.97;;;;;;;16.53;100.00;101367.25;4778056;30;20055;-64
2023/10/11 03:58:37;;;;;;;19.60;8.43;;;;;;;16.46;100.00;101372.31;4778425;30;20530;-64
2023/10/11 04:03:41;;;;;;;16.80;7.28;;;;;;;16.50;100.00;101374.19;4777232;30;20582;-64
2023/10/11 04:06:16;;;;;;;15.98;7.15;;;;;;;16.52;100.00;101377.47;4778907;30;20056;-63
2023/10/11 04:08:50;;;;;;;13.00;6.68;;;;;;;16.55;100.00;101381.59;4761594;30;20067;-64
2023/10/11 04:11:30;;;;;;;17.10;7.20;;;;;;;16.54;100.00;101368.91;4777907;30;20067;-63
2023/10/11 04:14:01;;;;;;;16.45;6.97;;;;;;;16.45;100.00;101376.22;4778870;30;20059;-63
2023/10/11 04:16:29;;;;;;;20.35;8.25;;;;;;;16.30;100.00;101371.75;4778353;30;20055;-64
2023/10/11 04:19:01;;;;;;;16.80;6.82;;;;;;;16.25;100.00;101367.13;4778319;30;20063;-64
2023/10/11 04:24:19;;;;;;;17.27;7.25;;;;;;;16.35;100.00;101366.97;4778899;30;20423;-63
2023/10/11 04:26:54;;;;;;;18.42;8.13;;;;;;;16.42;100.00;101374.88;4777384;29;20531;-63
2023/10/11 04:29:25;;;;;;;21.45;8.63;;;;;;;16.38;100.00;101377.41;4777726;30;20074;-64
2023/10/11 04:32:09;;;;;;;15.65;8.40;;;;;;;16.32;100.00;101377.81;4777994;30;20055;-63
2023/10/11 04:34:48;;;;;;;18.52;9.35;;;;;;;16.20;100.00;101381.84;4778753;30;20055;-63
2023/10/11 04:37:27;;;;;;;24.45;9.23;;;;;;;16.61;100.00;101380.38;4746532;30;20261;-67
2023/10/11 04:40:14;;;;;;;24.45;8.55;;;;;;;17.00;100.00;101380.25;4777049;30;21445;-68
2023/10/11 04:43:01;;;;;;;17.50;8.43;;;;;;;17.33;100.00;101383.00;4777494;29;20529;-67
2023/10/11 04:45:44;;;;;;;20.75;9.32;;;;;;;17.56;100.00;101381.16;4778688;30;20059;-67
2023/10/11 04:48:36;;;;;;;20.13;9.60;;;;;;;17.64;100.00;101385.16;4761454;30;20059;-67
2023/10/11 04:51:21;;;;;;;19.63;9.05;;;;;;;17.79;100.00;101383.22;4777866;29;20062;-68
2023/10/11 04:59:09;;;;;;;20.67;9.48;;;;;;;17.50;100.00;101378.81;4777917;30;20051;-67
2023/10/11 05:04:41;;;;;;;17.75;10.35;;;;;;;17.61;100.00;101388.56;4760869;29;20130;-69
2023/10/11 05:07:09;;;;;;;21.85;10.30;;;;;;;17.44;100.00;101381.69;4777459;30;20399;-69
2023/10/11 05:09:38;;;;;;;23.05;10.32;;;;;;;17.30;100.00;101389.16;4773168;30;20051;-68
2023/10/11 05:12:12;;;;;;;17.73;9.82;;;;;;;17.31;100.00;101385.28;4777806;30;20066;-69
2023/10/11 05:25:37;;;;;;;18.27;10.02;;;;;;;17.69;100.00;101392.56;4776432;29;20058;-69
2023/10/11 05:31:19;;;;;;;20.80;9.80;;;;;;;17.71;100.00;101401.34;4776116;29;20083;-69
2023/10/11 05:36:49;;;;;;;19.70;8.25;;;;;;;17.72;100.00;101401.06;4777774;29;20058;-68
2023/10/11 05:51:08;;;;;;;19.23;7.78;;;;;;;17.43;100.00;101399.41;4781618;30;20070;-68
2023/10/11 05:53:17;;;;;;;15.38;7.53;;;;;;;17.59;100.00;101418.47;4778616;30;20051;-69
2023/10/11 05:55:45;;;;;;;15.75;7.75;;;;;;;17.71;100.00;101415.19;4781050;30;20047;-69
2023/10/11 05:58:13;;;;;;;19.90;7.75;;;;;;;17.69;100.00;101407.19;4780371;30;20059;-69
2023/10/11 06:00:49;;;;;;;19.77;8.35;;;;;;;17.69;100.00;101414.69;4781225;30;20503;-69
2023/10/11 06:03:17;;;;;;;16.70;7.65;;;;;;;17.70;100.00;101421.88;4780533;30;20070;-68
2023/10/11 06:05:51;;;;;;;18.15;7.30;;;;;;;17.94;100.00;101424.38;4781222;30;20058;-69
2023/10/11 06:08:23;;;;;;;18.80;9.07;;;;;;;18.05;100.00;101421.41;4780049;30;20070;-69
2023/10/11 06:10:55;;;;;;;21.25;9.10;;;;;;;18.14;100.00;101422.34;4781206;30;20067;-69
2023/10/11 06:13:24;;;;;;;28.33;13.63;;;;;;;18.11;100.00;101428.50;4780568;30;20055;-69
2023/10/11 06:15:59;;;;;;;32.03;14.40;;;;;;;18.17;100.00;101437.53;4780849;30;20074;-69
2023/10/11 06:21:33;;;;;;;37.42;15.43;;;;;;;18.25;100.00;101443.16;4760481;30;20084;-69
2023/10/11 06:24:04;;;;;;;39.28;16.75;;;;;;;18.36;100.00;101446.50;4761134;30;20067;-69
2023/10/11 06:29:07;;;;;;;42.50;18.23;;;;;;;18.47;100.00;101457.38;4780326;30;20059;-69
2023/10/11 06:31:39;;;;;;;39.35;16.63;;;;;;;18.49;100.00;101444.84;4779779;30;20062;-69
2023/10/11 06:34:15;;;;;;;38.63;17.98;;;;;;;18.63;100.00;101455.06;4779117;30;20059;-69
2023/10/11 06:36:50;;;;;;;43.55;18.70;;;;;;;18.62;100.00;101447.88;4781175;30;20055;-69
2023/10/11 06:42:13;;;;;;;48.65;21.65;;;;;;;18.76;100.00;101453.34;4780090;30;20067;-69
2023/10/11 06:44:47;;;;;;;42.65;22.40;;;;;;;18.82;100.00;101446.53;4780156;30;20055;-70
2023/10/11 06:47:18;;;;;;;44.28;19.77;;;;;;;18.93;100.00;101453.47;4764668;30;20082;-69
2023/10/11 06:49:54;;;;;;;41.88;19.75;;;;;;;19.02;100.00;101449.94;4779797;30;20063;-69
2023/10/11 06:52:25;;;;;;;38.83;17.38;;;;;;;19.04;100.00;101454.06;4781008;30;20067;-69
2023/10/11 06:57:45;;;;;;;33.10;15.65;;;;;;;19.14;100.00;101463.25;4779580;30;20063;-69
2023/10/11 07:00:24;;;;;;;33.97;14.98;;;;;;;19.19;100.00;101468.66;4779895;29;20059;-69
2023/10/11 07:03:09;;;;;;;35.78;16.10;;;;;;;19.15;100.00;101454.63;4780458;30;20070;-69
2023/10/11 07:05:46;;;;;;;34.63;15.75;;;;;;;19.27;100.00;101462.38;4779828;30;20075;-69
2023/10/11 07:08:20;;;;;;;33.83;14.90;;;;;;;19.50;100.00;101459.53;4777842;30;20383;-69
2023/10/11 07:14:05;;;;;;;34.90;16.77;;;;;;;19.60;100.00;101470.34;4778832;30;19933;-69
2023/10/11 07:16:37;;;;;;;36.35;15.48;;;;;;;19.71;100.00;101470.06;4780035;30;20078;-69
2023/10/11 07:19:06;;;;;;;38.03;16.65;;;;;;;19.88;100.00;101483.19;4779209;30;20070;-69
2023/10/11 07:21:52;;;;;;;31.30;16.30;;;;;;;19.94;100.00;101478.31;4779699;30;20051;-69
2023/10/11 07:24:42;;;;;;;36.60;17.10;;;;;;;20.11;98.92;101481.19;4763599;30;20062;-69
2023/10/11 07:27:09;;;;;;;44.00;17.73;;;;;;;20.08;99.44;101478.22;4779573;30;20047;-69
2023/10/11 07:29:44;;;;;;;34.42;18.55;;;;;;;20.20;98.34;101480.38;4778363;30;20055;-69
2023/10/11 07:32:18;;;;;;;29.15;16.85;;;;;;;20.25;97.17;101478.25;4779417;30;20063;-69
2023/10/11 07:34:48;;;;;;;36.08;18.67;;;;;;;20.25;99.17;101480.22;4763373;30;20055;-68
2023/10/11 07:37:26;;;;;;;29.30;16.38;;;;;;;20.28;98.56;101476.78;4778964;30;20077;-69
2023/10/11 07:40:00;;;;;;;30.50;16.85;;;;;;;20.35;97.38;101477.13;4762288;30;20055;-69
2023/10/11 07:42:37;;;;;;;32.42;16.40;;;;;;;20.47;97.20;101473.69;4780221;30;20079;-69
2023/10/11 07:45:12;;;;;;;31.73;16.48;;;;;;;20.61;96.23;101481.06;4780057;30;20051;-69
2023/10/11 07:47:45;;;;;;;32.70;16.33;;;;;;;20.57;96.63;101480.88;4777919;30;20047;-69
2023/10/11 07:50:15;;;;;;;33.22;16.25;;;;;;;20.76;94.63;101479.72;4778938;30;20598;-69
2023/10/11 07:52:44;;;;;;;33.05;15.93;;;;;;;20.86;94.23;101486.97;4779318;30;20082;-69
2023/10/11 07:55:14;;;;;;;31.50;15.65;;;;;;;20.94;92.98;101484.19;4763493;30;20408;-69
2023/10/11 07:57:46;;;;;;;30.23;16.38;;;;;;;21.05;92.92;101483.84;4779214;30;20499;-69
2023/10/11 08:00:18;;;;;;;31.30;18.02;;;;;;;21.10;95.37;101478.09;4779474;30;20070;-68
2023/10/11 08:03:02;;;;;;;34.33;18.17;;;;;;;21.13;94.74;101483.03;4779650;30;20089;-68
2023/10/11 08:05:45;;;;;;;35.85;20.30;;;;;;;21.01;97.76;101489.25;4778290;30;20114;-68
2023/10/11 08:08:14;;;;;;;34.53;17.88;;;;;;;21.13;93.92;101487.75;4777550;30;20055;-68
2023/10/11 08:10:52;;;;;;;32.33;17.40;;;;;;;21.25;93.43;101489.88;4779188;30;20435;-67
2023/10/11 08:13:26;;;;;;;37.38;19.38;;;;;;;21.16;94.05;101487.91;4779506;29;20063;-68
2023/10/11 08:15:58;;;;;;;33.75;18.92;;;;;;;21.29;94.47;101476.91;4778433;30;20059;-68
2023/10/11 08:18:27;;;;;;;38.55;18.63;;;;;;;21.36;94.08;101485.56;4777882;30;20051;-68
2023/10/11 08:20:55;;;;;;;38.92;20.90;;;;;;;21.30;94.61;101481.31;4778411;30;20471;-70
2023/10/11 08:23:30;;;;;;;40.42;19.67;;;;;;;21.34;95.27;101485.91;4778631;30;20059;-68
2023/10/11 08:26:05;;;;;;;41.08;20.45;;;;;;;21.38;95.38;101483.28;4779018;30;20059;-68
2023/10/11 08:28:34;;;;;;;37.97;18.52;;;;;;;21.53;94.53;101483.88;4777413;30;20054;-69
2023/10/11 08:31:03;;;;;;;30.88;16.73;;;;;;;21.62;92.61;101485.47;4762599;30;20051;-68
2023/10/11 08:33:31;;;;;;;33.78;17.92;;;;;;;21.62;92.78;101479.09;4778703;30;20055;-68
2023/10/11 08:36:01;;;;;;;35.60;17.73;;;;;;;21.74;90.63;101482.03;4778831;30;20081;-68
2023/10/11 08:38:32;;;;;;;34.90;17.52;;;;;;;21.73;91.95;101472.03;4777596;30;20066;-68
2023/10/11 08:41:00;;;;;;;33.67;17.38;;;;;;;21.84;90.32;101474.41;4778495;30;20055;-68
2023/10/11 08:43:29;;;;;;;33.97;17.80;;;;;;;21.94;89.87;101474.03;4779123;30;20055;-67
2023/10/11 08:46:09;;;;;;;33.17;18.83;;;;;;;21.80;91.62;101471.50;4778740;30;20067;-68
2023/10/11 08:48:39;;;;;;;35.65;18.45;;;;;;;22.00;91.11;101469.09;4777617;30;20077;-76
2023/10/11 08:51:11;;;;;;;34.10;17.83;;;;;;;22.02;89.96;101473.19;4776797;30;20059;-71
2023/10/11 08:54:00;;;;;;;31.85;17.05;;;;;;;22.14;88.84;101466.06;4763021;30;20056;-71
2023/10/11 08:56:28;;;;;;;35.42;18.95;;;;;;;22.28;89.00;101476.94;4778690;30;20063;-72
2023/10/11 08:59:01;;;;;;;36.05;18.17;;;;;;;22.32;88.07;101475.13;4761189;30;20062;-71
2023/10/11 09:01:36;;;;;;;32.07;16.50;;;;;;;22.35;87.03;101468.88;4779116;30;20059;-72
2023/10/11 09:04:11;;;;;;;31.75;17.63;;;;;;;22.40;87.63;101479.00;4778401;30;20058;-72
2023/10/11 09:06:45;;;;;;;36.42;19.25;;;;;;;22.49;88.25;101476.94;4777965;30;20055;-71
2023/10/11 09:09:39;;;;;;;31.70;16.27;;;;;;;22.54;86.25;101476.78;4776118;30;20047;-71
2023/10/11 09:12:24;;;;;;;33.47;16.85;;;;;;;22.60;85.14;101479.38;4778199;30;20316;-71
2023/10/11 09:15:00;;;;;;;36.63;17.25;;;;;;;22.67;84.48;101476.84;4779004;30;20051;-70
2023/10/11 09:17:38;;;;;;;35.55;16.98;;;;;;;22.74;84.59;101473.50;4779343;30;20059;-71
2023/10/11 09:20:23;;;;;;;36.05;17.52;;;;;;;22.82;83.29;101479.00;4762099;30;20089;-71
2023/10/11 09:22:53;;;;;;;35.03;16.40;;;;;;;22.92;82.03;101469.38;4779382;29;20085;-72
2023/10/11 09:25:23;;;;;;;33.22;15.85;;;;;;;23.05;81.37;101477.81;4783712;30;20067;-71
2023/10/11 09:27:54;;;;;;;25.95;15.95;;;;;;;23.20;80.61;101479.13;4782687;30;20739;-71
2023/10/11 09:30:26;;;;;;;33.70;15.88;;;;;;;23.32;78.40;101476.38;4766550;30;20055;-72
2023/10/11 09:32:59;;;;;;;26.67;14.45;;;;;;;23.40;78.16;101477.44;4783171;30;20759;-72
2023/10/11 09:35:28;;;;;;;27.40;14.00;;;;;;;23.50;77.54;101481.78;4784203;30;20051;-71
2023/10/11 09:37:57;;;;;;;25.42;13.73;;;;;;;23.44;77.86;101477.56;4765939;30;20059;-71
2023/10/11 09:40:31;;;;;;;29.85;14.63;;;;;;;23.51;77.56;101477.81;4783369;30;20055;-71
2023/10/11 09:43:04;;;;;;;29.30;15.23;;;;;;;23.46;78.12;101476.06;4784268;30;20149;-69
2023/10/11 09:45:42;;;;;;;28.90;13.93;;;;;;;23.64;76.65;101477.84;4767359;30;20086;-70
2023/10/11 09:48:12;;;;;;;27.15;14.15;;;;;;;23.60;76.96;101470.16;4781062;30;20055;-70
2023/10/11 09:50:41;;;;;;;27.52;13.65;;;;;;;23.72;76.99;101474.13;4783122;30;20086;-70
2023/10/11 09:53:12;;;;;;;31.23;14.07;;;;;;;23.81;76.82;101472.03;4783641;30;20074;-70
2023/10/11 09:56:08;;;;;;;28.50;14.07;;;;;;;23.77;76.93;101462.69;4782694;30;20064;-70
2023/10/11 09:58:41;;;;;;;26.13;14.00;;;;;;;23.90;76.30;101471.88;4783474;30;20059;-70
2023/10/11 10:01:22;;;;;;;30.10;14.13;;;;;;;23.91;76.10;101467.94;4783378;30;20060;-70
2023/10/11 10:03:54;;;;;;;25.00;12.70;;;;;;;23.86;76.03;101465.38;4783926;30;20067;-70
2023/10/11 10:06:22;;;;;;;26.23;13.23;;;;;;;23.89;76.22;101462.69;4783778;30;20055;-70
2023/10/11 10:09:24;;;;;;;25.23;13.07;;;;;;;23.92;74.33;101469.56;4782532;30;20190;-70
2023/10/11 10:12:10;;;;;;;25.08;12.70;;;;;;;24.11;75.53;101477.38;4783482;30;20086;-70
2023/10/11 10:14:41;;;;;;;30.30;13.52;;;;;;;24.13;75.21;101474.22;4782212;30;20059;-70
2023/10/11 10:17:15;;;;;;;29.15;13.40;;;;;;;24.37;76.64;101472.53;4783294;30;20131;-70
2023/10/11 10:19:48;;;;;;;25.27;13.13;;;;;;;24.37;74.79;101467.78;4782230;29;20178;-70
2023/10/11 10:22:27;;;;;;;22.92;12.40;;;;;;;24.39;76.40;101459.03;4767738;30;20066;-70
2023/10/11 10:25:18;;;;;;;22.00;12.30;;;;;;;24.62;76.58;101466.88;4784317;30;20055;-70
2023/10/11 10:27:52;;;;;;;25.38;12.02;;;;;;;24.70;74.42;101458.31;4783323;29;20067;-70
2023/10/11 10:30:27;;;;;;;21.17;11.30;;;;;;;24.78;74.44;101464.13;4784043;30;20066;-70
2023/10/11 10:33:24;;;;;;;24.15;12.18;;;;;;;24.98;72.42;101458.69;4783577;30;20070;-69
2023/10/11 10:35:53;;;;;;;22.95;11.93;;;;;;;25.07;72.80;101459.34;4763974;30;20063;-70
2023/10/11 10:38:22;;;;;;;21.42;11.23;;;;;;;24.97;72.74;101460.69;4779081;30;20416;-70
2023/10/11 10:41:25;;;;;;;21.13;9.93;;;;;;;25.14;71.26;101455.91;4779067;30;20062;-70
2023/10/11 10:44:17;;;;;;;24.17;12.38;;;;;;;25.10;71.16;101461.44;4779759;30;20178;-70
2023/10/11 10:46:50;;;;;;;18.50;11.65;;;;;;;25.25;71.21;101447.78;4780286;30;20074;-70
2023/10/11 10:49:20;;;;;;;20.73;11.50;;;;;;;25.21;70.72;101444.91;4779395;30;20055;-70
2023/10/11 10:51:48;;;;;;;20.77;11.88;;;;;;;25.22;70.41;101444.53;4779588;30;20078;-71
2023/10/11 10:54:22;;;;;;;21.83;12.57;;;;;;;25.13;71.92;101443.94;4779870;30;20141;-70
2023/10/11 10:56:53;;;;;;;25.67;12.25;;;;;;;25.11;69.88;101440.66;4763986;30;20089;-70
2023/10/11 10:59:25;;;;;;;20.50;12.10;;;;;;;24.93;70.52;101431.78;4778863;30;20055;-70
2023/10/11 11:01:53;;;;;;;20.95;12.63;;;;;;;25.14;71.64;101437.16;4780511;30;20070;-69
2023/10/11 11:04:28;;;;;;;19.63;11.10;;;;;;;25.17;70.82;101427.22;4779426;30;20063;-70
2023/10/11 11:06:58;;;;;;;21.00;11.93;;;;;;;25.19;70.26;101422.88;4780660;30;20055;-70
2023/10/11 11:09:27;;;;;;;20.60;11.25;;;;;;;25.42;69.31;101427.03;4779398;30;20059;-70
2023/10/11 11:12:14;;;;;;;23.73;11.93;;;;;;;25.35;68.79;101413.66;4763755;30;20062;-70
2023/10/11 11:14:56;;;;;;;24.13;12.20;;;;;;;25.54;68.51;101414.91;4779305;30;20055;-70
2023/10/11 11:17:46;;;;;;;23.92;11.15;;;;;;;25.50;69.56;101407.22;4764251;30;20051;-71
2023/10/11 11:22:52;;;;;;;22.27;11.85;;;;;;;25.77;68.40;101399.06;4780038;30;20070;-70
2023/10/11 11:28:05;;;;;;;21.77;11.30;;;;;;;25.61;68.25;101387.88;4779404;30;20065;-71
2023/10/11 11:30:33;;;;;;;20.10;10.98;;;;;;;25.69;68.56;101386.06;4780620;30;20055;-70
2023/10/11 11:33:13;;;;;;;20.05;10.63;;;;;;;25.79;66.77;101376.28;4780900;30;20051;-70
2023/10/11 11:35:44;;;;;;;18.67;10.68;;;;;;;26.06;67.33;101384.88;4761705;30;20060;-71
2023/10/11 11:38:21;;;;;;;20.55;10.73;;;;;;;26.07;66.73;101385.69;4762343;30;20078;-71
2023/10/11 11:40:51;;;;;;;21.90;10.68;;;;;;;26.03;66.62;101371.59;4780100;30;20055;-71
2023/10/11 11:43:20;;;;;;;20.17;10.77;;;;;;;26.09;66.29;101386.16;4779688;30;20066;-71
2023/10/11 11:45:56;;;;;;;15.65;9.00;;;;;;;26.15;66.75;101371.44;4779026;29;20059;-71
2023/10/11 11:48:25;;;;;;;20.67;10.88;;;;;;;26.20;66.29;101372.34;4778509;30;20530;-71
2023/10/11 11:50:56;;;;;;;20.48;10.57;;;;;;;26.25;66.36;101364.47;4778589;30;20059;-70
2023/10/11 11:53:25;;;;;;;16.95;10.43;;;;;;;26.34;65.49;101372.66;4779139;30;20058;-70
2023/10/11 11:55:54;;;;;;;21.65;11.10;;;;;;;26.32;66.00;101366.59;4778910;30;20089;-71
2023/10/11 11:58:22;;;;;;;23.33;11.48;;;;;;;26.40;66.07;101361.94;4761455;30;20931;-71
2023/10/11 12:01:08;;;;;;;19.65;12.07;;;;;;;26.45;64.64;101367.28;4778971;30;20067;-71
2023/10/11 12:03:37;;;;;;;18.75;11.52;;;;;;;26.49;64.77;101354.09;4764486;30;20055;-71
2023/10/11 12:06:21;;;;;;;17.77;11.77;;;;;;;26.46;64.89;101357.66;4775480;29;20436;-70
2023/10/11 12:09:02;;;;;;;25.10;11.75;;;;;;;26.53;64.80;101357.78;4759860;30;20055;-71
2023/10/11 12:11:31;;;;;;;21.50;11.13;;;;;;;26.52;65.19;101358.97;4778822;29;20063;-71
2023/10/11 12:14:03;;;;;;;19.25;10.90;;;;;;;26.58;65.79;101355.88;4776622;29;20532;-71
2023/10/11 12:16:32;;;;;;;22.00;12.30;;;;;;;26.53;65.23;101352.19;4776520;30;20511;-71
2023/10/11 12:19:01;;;;;;;23.77;12.30;;;;;;;26.46;65.22;101346.44;4776666;30;20338;-70
2023/10/11 12:21:33;;;;;;;19.30;11.63;;;;;;;26.50;65.23;101352.13;4777570;29;20057;-71
2023/10/11 12:24:10;;;;;;;19.42;12.10;;;;;;;26.52;64.72;101350.56;4777253;29;20058;-71
2023/10/11 12:26:58;;;;;;;21.60;12.30;;;;;;;26.56;65.46;101347.81;4777017;29;20051;-71
2023/10/11 12:29:28;;;;;;;23.02;12.55;;;;;;;26.38;64.45;101339.88;4776046;30;20055;-70
2023/10/11 12:31:58;;;;;;;19.88;10.93;;;;;;;26.51;65.10;101339.69;4776705;30;20056;-70
2023/10/11 12:34:27;;;;;;;23.30;11.85;;;;;;;26.69;65.00;101335.22;4777408;30;20067;-70
2023/10/11 12:36:55;;;;;;;26.40;12.82;;;;;;;26.82;62.87;101338.66;4777768;30;20054;-72
2023/10/11 12:39:25;;;;;;;21.60;12.73;;;;;;;26.55;63.49;101327.34;4775541;30;20074;-71